createdAt,value
2018-06-11T00:02:27.665Z,24.73
2018-06-11T00:04:56.401Z,21.93
2018-06-11T00:07:24.973Z,21.90
2018-06-11T00:09:53.585Z,23.47
2018-06-11T00:12:22.224Z,23.07
2018-06-11T00:14:50.896Z,22.07
2018-06-11T00:17:19.479Z,22.20
2018-06-11T00:19:48.061Z,24.30
2018-06-11T00:22:16.791Z,23.07
2018-06-11T00:24:45.376Z,23.00
2018-06-11T00:27:14.072Z,27.20
2018-06-11T00:29:42.817Z,23.83
2018-06-11T00:32:11.365Z,25.40
2018-06-11T00:34:40.096Z,25.33
2018-06-11T00:37:08.657Z,24.13
2018-06-11T00:39:37.433Z,26.20
2018-06-11T00:42:06.049Z,26.00
2018-06-11T00:44:34.680Z,23.37
2018-06-11T00:47:03.258Z,25.57
2018-06-11T00:49:31.833Z,23.87
2018-06-11T00:52:00.387Z,24.97
2018-06-11T00:54:28.954Z,23.47
2018-06-11T00:56:57.491Z,23.17
2018-06-11T00:59:26.120Z,24.47
2018-06-11T01:01:54.655Z,25.47
2018-06-11T01:04:23.266Z,24.43
2018-06-11T01:06:51.849Z,24.30
2018-06-11T01:09:20.577Z,21.50
2018-06-11T01:11:49.130Z,26.50
2018-06-11T01:14:18.161Z,23.30
2018-06-11T01:16:46.698Z,21.50
2018-06-11T01:19:15.264Z,22.63
2018-06-11T01:21:43.881Z,22.60
2018-06-11T01:24:12.492Z,23.87
2018-06-11T01:26:41.073Z,22.40
2018-06-11T01:29:10.768Z,20.87
2018-06-11T01:31:39.377Z,20.73
2018-06-11T01:34:07.996Z,23.00
2018-06-11T01:36:36.607Z,19.70
2018-06-11T01:39:07.147Z,22.30
2018-06-11T01:41:35.992Z,23.37
2018-06-11T01:44:04.590Z,21.80
2018-06-11T01:46:33.147Z,25.20
2018-06-11T01:49:01.780Z,22.27
2018-06-11T01:51:30.408Z,21.70
2018-06-11T01:53:58.952Z,23.40
2018-06-11T01:56:27.538Z,22.57
2018-06-11T01:58:56.033Z,23.27
2018-06-11T02:01:24.958Z,24.17
2018-06-11T02:03:53.512Z,23.97
2018-06-11T02:06:22.048Z,23.70
2018-06-11T02:08:50.674Z,23.63
2018-06-11T02:11:19.208Z,24.10
2018-06-11T02:13:47.817Z,26.13
2018-06-11T02:16:16.353Z,26.17
2018-06-11T02:18:44.930Z,25.00
2018-06-11T02:21:13.448Z,26.40
2018-06-11T02:23:42.057Z,27.33
2018-06-11T02:26:11.013Z,25.70
2018-06-11T02:28:39.584Z,24.23
2018-06-11T02:31:08.757Z,23.00
2018-06-11T02:33:37.874Z,26.57
2018-06-11T02:36:06.516Z,26.63
2018-06-11T02:38:35.114Z,25.73
2018-06-11T02:41:03.685Z,26.97
2018-06-11T02:43:32.313Z,26.27
2018-06-11T02:46:01.012Z,26.53
2018-06-11T02:48:30.470Z,26.90
2018-06-11T02:50:59.189Z,26.40
2018-06-11T02:53:27.947Z,25.70
2018-06-11T02:55:56.703Z,27.03
2018-06-11T02:58:25.528Z,26.80
2018-06-11T03:00:54.265Z,29.03
2018-06-11T03:03:22.818Z,27.00
2018-06-11T03:05:51.441Z,25.60
2018-06-11T03:08:19.981Z,26.27
2018-06-11T03:10:48.709Z,28.40
2018-06-11T03:13:17.499Z,28.40
2018-06-11T03:15:46.050Z,25.03
2018-06-11T03:18:14.621Z,26.47
2018-06-11T03:20:43.488Z,30.73
2018-06-11T03:23:12.086Z,27.03
2018-06-11T03:25:41.092Z,30.00
2018-06-11T03:28:09.711Z,27.10
2018-06-11T03:30:38.301Z,27.57
2018-06-11T03:33:07.390Z,28.07
2018-06-11T03:35:36.953Z,29.27
2018-06-11T03:38:06.915Z,28.13
2018-06-11T03:40:35.700Z,29.03
2018-06-11T03:43:04.590Z,30.00
2018-06-11T03:45:33.204Z,29.10
2018-06-11T03:48:01.877Z,27.93
2018-06-11T03:50:30.610Z,28.80
2018-06-11T03:52:59.272Z,27.60
2018-06-11T03:55:27.909Z,30.33
2018-06-11T03:57:56.510Z,30.37
2018-06-11T04:00:25.138Z,30.47
2018-06-11T04:02:54.261Z,41.47
2018-06-11T04:05:23.162Z,35.17
2018-06-11T04:07:53.077Z,29.77
2018-06-11T04:10:22.257Z,30.93
2018-06-11T04:12:51.302Z,29.90
2018-06-11T04:15:19.915Z,28.10
2018-06-11T04:17:48.475Z,25.77
2018-06-11T04:20:17.007Z,26.90
2018-06-11T04:22:45.821Z,29.27
2018-06-11T04:25:14.361Z,27.43
2018-06-11T04:27:43.232Z,26.17
2018-06-11T04:30:11.875Z,75.83
2018-06-11T04:32:40.454Z,37.57
2018-06-11T04:35:09.108Z,29.50
2018-06-11T04:37:37.659Z,29.70
2018-06-11T04:40:06.220Z,28.50
2018-06-11T04:42:34.804Z,26.83
2018-06-11T04:45:03.457Z,26.73
2018-06-11T04:47:32.047Z,24.33
2018-06-11T04:50:00.809Z,29.03
2018-06-11T04:52:29.326Z,28.23
2018-06-11T04:54:57.916Z,32.03
2018-06-11T04:57:26.454Z,26.90
2018-06-11T04:59:55.039Z,29.60
2018-06-11T05:02:23.632Z,29.90
2018-06-11T05:04:52.195Z,26.83
2018-06-11T05:07:20.780Z,25.43
2018-06-11T05:09:49.369Z,28.70
2018-06-11T05:12:17.927Z,30.90
2018-06-11T05:14:46.781Z,28.00
2018-06-11T05:17:15.417Z,31.93
2018-06-11T05:19:43.976Z,29.60
2018-06-11T05:22:12.542Z,28.80
2018-06-11T05:24:41.160Z,31.70
2018-06-11T05:27:09.804Z,30.37
2018-06-11T05:29:38.782Z,37.23
2018-06-11T05:32:07.371Z,38.63
2018-06-11T05:34:35.954Z,34.43
2018-06-11T05:37:04.604Z,29.80
2018-06-11T05:39:33.144Z,31.07
2018-06-11T05:42:02.197Z,29.87
2018-06-11T05:44:30.739Z,24.40
2018-06-11T05:46:59.313Z,31.20
2018-06-11T05:49:27.980Z,27.30
2018-06-11T05:51:56.573Z,30.97
2018-06-11T05:54:25.448Z,33.33
2018-06-11T05:56:54.094Z,28.73
2018-06-11T05:59:22.778Z,25.83
2018-06-11T06:01:51.324Z,25.33
2018-06-11T06:04:19.941Z,23.87
2018-06-11T06:06:48.576Z,25.87
2018-06-11T06:09:17.389Z,26.60
2018-06-11T06:11:45.941Z,25.07
2018-06-11T06:14:14.556Z,25.80
2018-06-11T06:16:43.088Z,25.83
2018-06-11T06:19:11.728Z,26.90
2018-06-11T06:21:40.680Z,23.33
2018-06-11T06:24:09.372Z,24.63
2018-06-11T06:26:37.920Z,23.53
2018-06-11T06:29:06.564Z,21.97
2018-06-11T06:31:35.156Z,24.30
2018-06-11T06:34:03.840Z,22.20
2018-06-11T06:36:32.328Z,22.80
2018-06-11T06:39:00.967Z,22.63
2018-06-11T06:41:29.503Z,21.80
2018-06-11T06:43:58.044Z,20.40
2018-06-11T06:46:26.652Z,21.90
2018-06-11T06:48:55.209Z,22.13
2018-06-11T06:51:23.860Z,22.40
2018-06-11T06:53:52.438Z,20.50
2018-06-11T06:56:21.024Z,19.97
2018-06-11T06:58:49.673Z,21.43
2018-06-11T07:01:18.259Z,21.77
2018-06-11T07:03:46.816Z,23.17
2018-06-11T07:06:15.451Z,20.70
2018-06-11T07:08:44.019Z,20.87
2018-06-11T07:11:12.677Z,20.40
2018-06-11T07:13:41.312Z,20.10
2018-06-11T07:16:09.887Z,21.37
2018-06-11T07:18:38.449Z,21.60
2018-06-11T07:21:07.041Z,22.50
2018-06-11T07:23:35.662Z,22.83
2018-06-11T07:26:04.222Z,19.60
2018-06-11T07:28:32.946Z,21.63
2018-06-11T07:31:03.232Z,21.30
2018-06-11T07:33:31.825Z,23.20
2018-06-11T07:36:00.353Z,20.10
2018-06-11T07:38:28.957Z,20.07
2018-06-11T07:40:57.742Z,19.87
2018-06-11T07:43:26.253Z,20.30
2018-06-11T07:45:55.102Z,20.90
2018-06-11T07:48:23.692Z,20.43
2018-06-11T07:50:52.590Z,23.40
2018-06-11T07:53:21.188Z,22.73
2018-06-11T07:55:49.725Z,22.10
2018-06-11T07:58:18.324Z,20.47
2018-06-11T08:00:46.908Z,23.23
2018-06-11T08:03:15.705Z,21.60
2018-06-11T08:05:44.260Z,22.53
2018-06-11T08:08:12.842Z,20.83
2018-06-11T08:10:41.463Z,21.90
2018-06-11T08:13:10.104Z,21.17
2018-06-11T08:15:38.684Z,21.50
2018-06-11T08:18:07.325Z,20.03
2018-06-11T08:20:35.900Z,20.83
2018-06-11T08:23:04.760Z,18.63
2018-06-11T08:25:33.376Z,21.60
2018-06-11T08:28:02.128Z,21.03
2018-06-11T08:30:30.805Z,21.50
2018-06-11T08:32:59.380Z,22.03
2018-06-11T08:35:27.963Z,22.00
2018-06-11T08:37:56.507Z,21.07
2018-06-11T08:40:25.081Z,22.30
2018-06-11T08:42:53.609Z,24.10
2018-06-11T08:45:22.300Z,21.03
2018-06-11T08:47:50.982Z,19.77
2018-06-11T08:50:19.600Z,21.03
2018-06-11T08:52:48.400Z,21.07
2018-06-11T08:55:16.997Z,20.83
2018-06-11T08:57:45.562Z,21.10
2018-06-11T09:00:14.240Z,19.53
2018-06-11T09:02:42.928Z,21.37
2018-06-11T09:05:11.621Z,19.73
2018-06-11T09:07:40.220Z,23.27
2018-06-11T09:10:08.840Z,27.30
2018-06-11T09:12:37.487Z,20.73
2018-06-11T09:15:06.060Z,19.80
2018-06-11T09:17:34.633Z,21.10
2018-06-11T09:20:03.841Z,21.70
2018-06-11T09:22:32.439Z,20.67
2018-06-11T09:25:01.146Z,20.97
2018-06-11T09:27:29.696Z,18.17
2018-06-11T09:29:58.344Z,19.40
2018-06-11T09:32:27.017Z,19.73
2018-06-11T09:34:55.556Z,19.80
2018-06-11T09:37:24.155Z,19.90
2018-06-11T09:39:52.724Z,18.17
2018-06-11T09:42:21.297Z,19.20
2018-06-11T09:44:49.868Z,18.93
2018-06-11T09:47:18.497Z,21.53
2018-06-11T09:49:47.056Z,19.53
2018-06-11T09:52:15.632Z,21.63
2018-06-11T09:54:44.244Z,19.60
2018-06-11T09:57:12.846Z,18.47
2018-06-11T09:59:41.452Z,20.10
2018-06-11T10:02:10.097Z,19.07
2018-06-11T10:04:38.692Z,18.07
2018-06-11T10:07:07.248Z,18.27
2018-06-11T10:09:35.833Z,21.60
2018-06-11T10:12:04.440Z,17.90
2018-06-11T10:14:33.048Z,16.20
2018-06-11T10:17:01.636Z,16.63
2018-06-11T10:19:30.280Z,17.20
2018-06-11T10:21:58.953Z,17.30
2018-06-11T10:24:27.655Z,18.40
2018-06-11T10:26:56.189Z,15.80
2018-06-11T10:29:24.959Z,15.33
2018-06-11T10:31:53.573Z,16.77
2018-06-11T10:34:22.221Z,16.30
2018-06-11T10:36:50.900Z,13.73
2018-06-11T10:39:19.579Z,13.80
2018-06-11T10:41:48.177Z,12.67
2018-06-11T10:44:16.852Z,12.97
2018-06-11T10:46:45.492Z,15.20
2018-06-11T10:49:14.056Z,14.13
2018-06-11T10:51:42.668Z,15.47
2018-06-11T10:54:11.254Z,14.90
2018-06-11T10:56:39.877Z,12.93
2018-06-11T10:59:08.453Z,14.80
2018-06-11T11:01:37.052Z,12.60
2018-06-11T11:04:05.664Z,12.27
2018-06-11T11:06:34.293Z,15.63
2018-06-11T11:09:02.893Z,15.47
2018-06-11T11:11:31.473Z,14.40
2018-06-11T11:14:00.026Z,12.00
2018-06-11T11:16:28.661Z,11.93
2018-06-11T11:18:57.297Z,11.27
2018-06-11T11:21:25.911Z,10.33
2018-06-11T11:23:54.536Z,11.87
2018-06-11T11:26:23.097Z,11.40
2018-06-11T11:28:51.676Z,12.40
2018-06-11T11:31:20.326Z,11.30
2018-06-11T11:33:49.013Z,11.40
2018-06-11T11:36:17.641Z,11.80
2018-06-11T11:38:46.332Z,10.23
2018-06-11T11:41:14.989Z,11.17
2018-06-11T11:43:43.582Z,8.60
2018-06-11T11:46:12.134Z,9.00
2018-06-11T11:48:40.763Z,11.10
2018-06-11T11:51:09.385Z,11.37
2018-06-11T11:53:37.920Z,10.60
2018-06-11T11:56:06.481Z,10.43
2018-06-11T11:58:35.260Z,11.00
2018-06-11T12:01:03.847Z,10.63
2018-06-11T12:03:32.466Z,12.00
2018-06-11T12:06:01.076Z,12.17
2018-06-11T12:08:29.702Z,12.13
2018-06-11T12:10:58.404Z,10.20
2018-06-11T12:13:27.039Z,9.97
2018-06-11T12:15:55.807Z,11.93
2018-06-11T12:18:24.369Z,10.80
2018-06-11T12:20:53.114Z,11.63
2018-06-11T12:23:21.666Z,10.80
2018-06-11T12:25:50.236Z,9.17
2018-06-11T12:28:18.824Z,8.07
2018-06-11T12:30:47.434Z,8.30
2018-06-11T12:33:16.016Z,8.53
2018-06-11T12:35:44.723Z,9.63
2018-06-11T12:38:13.411Z,11.20
2018-06-11T12:40:42.032Z,7.57
2018-06-11T12:43:10.627Z,8.03
2018-06-11T12:45:39.309Z,7.50
2018-06-11T12:48:07.959Z,8.27
2018-06-11T12:50:36.593Z,7.17
2018-06-11T12:53:05.380Z,7.97
2018-06-11T12:55:34.033Z,7.30
2018-06-11T12:58:02.647Z,7.20
2018-06-11T13:00:31.216Z,7.57
2018-06-11T13:02:59.861Z,7.33
2018-06-11T13:05:28.401Z,7.27
2018-06-11T13:07:57.071Z,7.97
2018-06-11T13:10:25.634Z,7.57
2018-06-11T13:12:54.299Z,8.03
2018-06-11T13:15:22.973Z,7.67
2018-06-11T13:17:51.544Z,8.17
2018-06-11T13:20:20.144Z,8.37
2018-06-11T13:22:48.921Z,8.00
2018-06-11T13:25:17.504Z,9.87
2018-06-11T13:27:46.116Z,9.03
2018-06-11T13:30:14.872Z,9.90
2018-06-11T13:32:43.468Z,8.43
2018-06-11T13:35:11.984Z,8.57
2018-06-11T13:37:42.463Z,8.33
2018-06-11T13:40:11.189Z,9.63
2018-06-11T13:42:39.896Z,8.30
2018-06-11T13:45:08.552Z,9.23
2018-06-11T13:47:37.213Z,9.83
2018-06-11T13:50:05.885Z,10.67
2018-06-11T13:52:34.474Z,9.93
2018-06-11T13:55:03.272Z,9.63
2018-06-11T13:57:31.920Z,11.63
2018-06-11T14:00:00.753Z,10.57
2018-06-11T14:02:29.457Z,9.97
2018-06-11T14:04:58.135Z,9.30
2018-06-11T14:07:26.788Z,11.00
2018-06-11T14:09:55.421Z,11.90
2018-06-11T14:12:23.965Z,12.10
2018-06-11T14:14:52.787Z,11.43
2018-06-11T14:17:21.408Z,13.50
2018-06-11T14:19:50.065Z,9.57
2018-06-11T14:22:18.742Z,7.63
2018-06-11T14:24:47.386Z,9.10
2018-06-11T14:27:15.957Z,9.00
2018-06-11T14:29:45.386Z,9.03
2018-06-11T14:32:14.001Z,8.33
2018-06-11T14:34:42.604Z,8.07
2018-06-11T14:37:11.242Z,7.90
2018-06-11T14:39:40.381Z,8.17
2018-06-11T14:42:09.053Z,5.93
2018-06-11T14:44:37.633Z,6.30
2018-06-11T14:47:06.405Z,5.97
2018-06-11T14:49:35.000Z,5.83
2018-06-11T14:52:03.691Z,5.77
2018-06-11T14:54:32.311Z,5.93
2018-06-11T14:57:01.410Z,5.80
2018-06-11T14:59:29.960Z,6.40
2018-06-11T15:01:58.657Z,5.83
2018-06-11T15:04:27.245Z,6.10
2018-06-11T15:06:55.867Z,10.20
2018-06-11T15:09:24.507Z,5.50
2018-06-11T15:11:53.136Z,6.27
2018-06-11T15:14:21.773Z,6.37
2018-06-11T15:16:50.397Z,13.33
2018-06-11T15:19:18.997Z,8.27
2018-06-11T15:21:47.792Z,6.80
2018-06-11T15:24:16.458Z,7.20
2018-06-11T15:26:45.033Z,7.00
2018-06-11T15:29:13.670Z,6.97
2018-06-11T15:31:42.289Z,6.80
2018-06-11T15:34:10.904Z,7.47
2018-06-11T15:36:39.517Z,6.10
2018-06-11T15:39:08.653Z,7.30
2018-06-11T15:41:37.318Z,7.07
2018-06-11T15:44:05.980Z,7.80
2018-06-11T15:46:34.569Z,6.70
2018-06-11T15:49:03.160Z,6.60
2018-06-11T15:51:32.019Z,6.57
2018-06-11T15:54:00.613Z,5.40
2018-06-11T15:56:29.273Z,5.30
2018-06-11T15:58:58.003Z,5.40
2018-06-11T16:01:26.606Z,5.57
2018-06-11T16:03:55.584Z,8.10
2018-06-11T16:06:24.240Z,5.13
2018-06-11T16:08:52.921Z,6.33
2018-06-11T16:11:21.584Z,5.73
2018-06-11T16:13:50.157Z,5.50
2018-06-11T16:16:18.781Z,5.37
2018-06-11T16:18:47.440Z,5.77
2018-06-11T16:21:16.197Z,5.33
2018-06-11T16:23:44.802Z,5.13
2018-06-11T16:26:13.418Z,5.20
2018-06-11T16:28:42.015Z,5.53
2018-06-11T16:31:10.612Z,5.10
2018-06-11T16:33:39.396Z,5.07
2018-06-11T16:36:08.067Z,4.27
2018-06-11T16:38:36.829Z,4.77
2018-06-11T16:41:05.530Z,4.70
2018-06-11T16:43:34.196Z,5.27
2018-06-11T16:46:02.801Z,4.73
2018-06-11T16:48:31.450Z,30.20
2018-06-11T16:51:00.128Z,5.80
2018-06-11T16:53:29.007Z,3.73
2018-06-11T16:55:57.749Z,5.23
2018-06-11T16:58:26.470Z,4.40
2018-06-11T17:00:55.037Z,5.53
2018-06-11T17:03:23.776Z,4.87
2018-06-11T17:05:52.456Z,5.53
2018-06-11T17:08:21.089Z,5.20
2018-06-11T17:10:49.744Z,5.87
2018-06-11T17:13:18.532Z,4.83
2018-06-11T17:15:47.146Z,4.90
2018-06-11T17:18:15.762Z,5.10
2018-06-11T17:20:44.389Z,5.47
2018-06-11T17:23:13.103Z,4.90
2018-06-11T17:25:41.751Z,4.80
2018-06-11T17:28:10.480Z,5.43
2018-06-11T17:30:39.099Z,4.97
2018-06-11T17:33:07.832Z,4.30
2018-06-11T17:35:36.436Z,4.90
2018-06-11T17:38:05.006Z,5.10
2018-06-11T17:40:33.571Z,17.93
2018-06-11T17:43:02.132Z,11.33
2018-06-11T17:45:30.770Z,11.53
2018-06-11T17:47:59.360Z,7.60
2018-06-11T17:50:28.065Z,7.03
2018-06-11T17:52:56.789Z,8.43
2018-06-11T17:55:25.973Z,5.23
2018-06-11T17:57:54.612Z,5.87
2018-06-11T18:00:23.184Z,6.40
2018-06-11T18:02:51.777Z,5.73
2018-06-11T18:05:20.421Z,4.97
2018-06-11T18:07:49.263Z,4.93
2018-06-11T18:10:18.046Z,5.43
2018-06-11T18:12:47.049Z,5.57
2018-06-11T18:15:15.657Z,5.03
2018-06-11T18:17:44.282Z,5.80
2018-06-11T18:20:12.849Z,5.97
2018-06-11T18:22:41.593Z,5.50
2018-06-11T18:25:10.254Z,5.53
2018-06-11T18:27:38.908Z,8.30
2018-06-11T18:30:07.542Z,5.33
2018-06-11T18:32:36.173Z,5.10
2018-06-11T18:35:04.794Z,6.10
2018-06-11T18:37:33.657Z,4.73
2018-06-11T18:40:02.266Z,5.10
2018-06-11T18:42:30.919Z,5.13
2018-06-11T18:44:59.502Z,5.30
2018-06-11T18:47:28.153Z,4.67
2018-06-11T18:49:56.946Z,6.00
2018-06-11T18:52:26.197Z,5.60
2018-06-11T18:54:54.777Z,5.00
2018-06-11T18:57:23.733Z,5.73
2018-06-11T18:59:52.298Z,5.03
2018-06-11T19:02:20.965Z,5.70
2018-06-11T19:04:49.609Z,4.53
2018-06-11T19:07:18.425Z,5.07
2018-06-11T19:09:47.092Z,5.50
2018-06-11T19:12:15.700Z,13.03
2018-06-11T19:14:44.369Z,15.50
2018-06-11T19:17:13.039Z,6.90
2018-06-11T19:19:41.615Z,6.77
2018-06-11T19:22:10.288Z,6.30
2018-06-11T19:24:39.014Z,6.40
2018-06-11T19:27:07.732Z,5.90
2018-06-11T19:29:36.483Z,7.27
2018-06-11T19:32:05.148Z,6.27
2018-06-11T19:34:33.781Z,8.67
2018-06-11T19:37:02.383Z,6.63
2018-06-11T19:39:31.069Z,6.40
2018-06-11T19:41:59.760Z,6.53
2018-06-11T19:44:28.540Z,6.93
2018-06-11T19:46:57.532Z,7.10
2018-06-11T19:49:26.118Z,6.80
2018-06-11T19:51:54.856Z,5.70
2018-06-11T19:54:23.433Z,6.00
2018-06-11T19:56:52.036Z,6.17
2018-06-11T19:59:20.708Z,6.60
2018-06-11T20:01:49.476Z,23.30
2018-06-11T20:04:18.066Z,9.20
2018-06-11T20:06:46.943Z,7.10
2018-06-11T20:09:15.687Z,8.03
2018-06-11T20:11:44.721Z,6.77
2018-06-11T20:14:13.270Z,6.20
2018-06-11T20:16:41.861Z,7.03
2018-06-11T20:19:10.465Z,6.30
2018-06-11T20:21:39.164Z,6.20
2018-06-11T20:24:07.785Z,6.60
2018-06-11T20:26:36.408Z,6.30
2018-06-11T20:29:05.016Z,6.53
2018-06-11T20:31:33.901Z,6.90
2018-06-11T20:34:02.604Z,6.33
2018-06-11T20:36:31.333Z,6.07
2018-06-11T20:39:00.015Z,6.90
2018-06-11T20:41:28.669Z,6.70
2018-06-11T20:43:57.352Z,6.63
2018-06-11T20:46:25.931Z,6.90
2018-06-11T20:48:54.804Z,7.53
2018-06-11T20:51:23.488Z,7.20
2018-06-11T20:53:52.084Z,5.70
2018-06-11T20:56:20.666Z,7.50
2018-06-11T20:58:49.397Z,15.90
2018-06-11T21:01:18.020Z,7.53
2018-06-11T21:03:46.693Z,7.23
2018-06-11T21:06:15.242Z,6.93
2018-06-11T21:08:43.858Z,6.73
2018-06-11T21:11:12.446Z,7.10
2018-06-11T21:13:41.037Z,5.93
2018-06-11T21:16:09.627Z,6.20
2018-06-11T21:18:38.333Z,6.27
2018-06-11T21:21:07.019Z,6.23
2018-06-11T21:23:35.724Z,6.10
2018-06-11T21:26:04.360Z,8.93
2018-06-11T21:28:33.000Z,7.40
2018-06-11T21:31:01.596Z,6.10
2018-06-11T21:33:30.153Z,5.90
2018-06-11T21:35:58.776Z,6.27
2018-06-11T21:38:27.327Z,6.10
2018-06-11T21:40:55.949Z,5.93
2018-06-11T21:43:24.606Z,7.27
2018-06-11T21:45:53.319Z,8.10
2018-06-11T21:48:21.873Z,7.30
2018-06-11T21:50:50.527Z,6.70
2018-06-11T21:53:19.096Z,8.33
2018-06-11T21:55:47.696Z,7.20
2018-06-11T21:58:16.228Z,7.10
2018-06-11T22:00:45.585Z,7.30
2018-06-11T22:03:14.345Z,7.20
2018-06-11T22:05:42.866Z,6.63
2018-06-11T22:08:11.455Z,6.43
2018-06-11T22:10:40.009Z,7.10
2018-06-11T22:13:08.613Z,7.43
2018-06-11T22:15:37.171Z,7.37
2018-06-11T22:18:05.856Z,8.50
2018-06-11T22:20:34.409Z,7.37
2018-06-11T22:23:03.011Z,7.47
2018-06-11T22:25:31.679Z,7.33
2018-06-11T22:28:00.299Z,7.30
2018-06-11T22:30:29.000Z,7.37
2018-06-11T22:32:57.540Z,7.13
2018-06-11T22:35:26.108Z,8.37
2018-06-11T22:37:54.698Z,8.10
2018-06-11T22:40:23.263Z,7.93
2018-06-11T22:42:51.848Z,8.30
2018-06-11T22:45:20.403Z,8.03
2018-06-11T22:47:48.958Z,7.90
2018-06-11T22:50:17.540Z,8.57
2018-06-11T22:52:46.097Z,7.33
2018-06-11T22:55:14.687Z,7.53
2018-06-11T22:57:43.228Z,9.33
2018-06-11T23:00:12.068Z,8.10
2018-06-11T23:02:40.616Z,7.63
2018-06-11T23:05:09.238Z,7.43
2018-06-11T23:07:37.771Z,8.30
2018-06-11T23:10:06.391Z,7.37
2018-06-11T23:12:35.172Z,7.97
2018-06-11T23:15:03.788Z,7.47
2018-06-11T23:17:32.340Z,7.20
2018-06-11T23:20:00.909Z,7.00
2018-06-11T23:22:29.480Z,6.90
2018-06-11T23:24:58.292Z,7.97
2018-06-11T23:27:26.860Z,7.33
2018-06-11T23:29:55.804Z,7.30
2018-06-11T23:32:24.357Z,7.13
2018-06-11T23:34:52.920Z,9.20
2018-06-11T23:37:21.634Z,7.40
2018-06-11T23:39:50.196Z,7.40
2018-06-11T23:42:18.838Z,7.70
2018-06-11T23:44:47.378Z,6.30
2018-06-11T23:47:16.016Z,8.37
2018-06-11T23:49:44.646Z,6.60
2018-06-11T23:52:13.234Z,6.90
2018-06-11T23:54:41.764Z,6.73
2018-06-11T23:57:10.440Z,7.20
2018-06-11T23:59:39.197Z,6.83
